Time;durP1;ratioP1;P1;durP2;ratioP2;P2;SDS_P1;SDS_P2;PMS_P1;PMS_P2;Temp;Humidity;BMP_temperature;BMP_pressure;BME280_temperature;BME280_humidity;BME280_pressure;Samples;Min_cycle;Max_cycle;Signal;HPM_P1;HPM_P2
2023/09/04 00:02:17;;;;;;;1.40;1.30;;;;;;;;;;4995864;28;20026;-78
2023/09/04 00:04:42;;;;;;;2.05;1.55;;;;;;;;;;5013380;28;20041;-78
2023/09/04 00:07:08;;;;;;;1.45;1.35;;;;;;;;;;5012307;28;20491;-78
2023/09/04 00:09:34;;;;;;;1.70;1.42;;;;;;;;;;5013476;28;20037;-78
2023/09/04 00:11:59;;;;;;;1.85;1.38;;;;;;;;;;5012033;28;20036;-78
2023/09/04 00:14:25;;;;;;;1.45;1.35;;;;;;;;;;5013907;28;20105;-78
2023/09/04 00:16:50;;;;;;;2.20;1.45;;;;;;;;;;5017653;28;20432;-77
2023/09/04 00:19:17;;;;;;;1.85;1.60;;;;;;;;;;5016386;28;20033;-78
2023/09/04 00:21:42;;;;;;;2.13;1.30;;;;;;;;;;5017382;28;20058;-78
2023/09/04 00:24:08;;;;;;;2.28;1.50;;;;;;;;;;5016082;28;20034;-78
2023/09/04 00:26:33;;;;;;;3.95;1.83;;;;;;;;;;5015917;28;20170;-78
2023/09/04 00:28:59;;;;;;;1.60;1.30;;;;;;;;;;5016193;28;20112;-78
2023/09/04 00:31:24;;;;;;;2.10;1.40;;;;;;;;;;5017380;28;20036;-77
2023/09/04 00:33:50;;;;;;;1.75;1.30;;;;;;;;;;5016058;28;20536;-78
2023/09/04 00:36:15;;;;;;;2.80;1.30;;;;;;;;;;5016054;28;20030;-77
2023/09/04 00:38:40;;;;;;;1.70;1.38;;;;;;;;;;5015862;28;20065;-78
2023/09/04 00:41:06;;;;;;;2.60;1.50;;;;;;;;;;5017232;28;20054;-78
2023/09/04 00:43:38;;;;;;;2.42;1.48;;;;;;;;;;5016868;28;20029;-78
2023/09/04 00:46:04;;;;;;;1.65;1.55;;;;;;;;;;5015905;28;20045;-78
2023/09/04 00:48:30;;;;;;;1.55;1.45;;;;;;;;;;5017086;28;20537;-78
2023/09/04 00:50:56;;;;;;;1.50;1.35;;;;;;;;;;5015507;28;20049;-77
2023/09/04 00:53:21;;;;;;;2.13;1.50;;;;;;;;;;5015459;28;20029;-78
2023/09/04 00:55:48;;;;;;;1.98;1.50;;;;;;;;;;5016629;28;20080;-78
2023/09/04 00:58:13;;;;;;;1.42;1.33;;;;;;;;;;4998977;28;20018;-78
2023/09/04 01:00:38;;;;;;;1.98;1.40;;;;;;;;;;5015821;28;20026;-78
2023/09/04 01:03:04;;;;;;;1.63;1.52;;;;;;;;;;5015315;28;20108;-78
2023/09/04 01:05:31;;;;;;;2.33;1.45;;;;;;;;;;4998910;28;20038;-78
2023/09/04 01:07:58;;;;;;;1.35;1.25;;;;;;;;;;5015218;28;20121;-77
2023/09/04 01:10:24;;;;;;;1.40;1.30;;;;;;;;;;5017470;28;20030;-78
2023/09/04 01:12:53;;;;;;;1.75;1.40;;;;;;;;;;5015439;28;20030;-78
2023/09/04 01:15:18;;;;;;;2.50;1.38;;;;;;;;;;5015000;28;20022;-78
2023/09/04 01:17:44;;;;;;;1.38;1.27;;;;;;;;;;5015076;28;20029;-78
2023/09/04 01:20:29;;;;;;;2.22;1.40;;;;;;;;;;5016573;28;20036;-78
2023/09/04 01:22:56;;;;;;;1.40;1.30;;;;;;;;;;5014714;28;20099;-77
2023/09/04 01:25:22;;;;;;;2.95;1.23;;;;;;;;;;5014519;28;20022;-78
2023/09/04 01:27:58;;;;;;;1.70;1.60;;;;;;;;;;5015052;28;20050;-78
2023/09/04 01:30:41;;;;;;;1.45;1.27;;;;;;;;;;5014790;28;20374;-77
2023/09/04 01:33:11;;;;;;;2.05;1.33;;;;;;;;;;4998336;28;20018;-78
2023/09/04 01:35:36;;;;;;;1.45;1.35;;;;;;;;;;5014821;28;20038;-78
2023/09/04 01:38:02;;;;;;;1.88;1.35;;;;;;;;;;5014836;28;20026;-77
2023/09/04 01:40:28;;;;;;;2.20;1.40;;;;;;;;;;5015211;28;20038;-77
2023/09/04 01:42:53;;;;;;;1.40;1.30;;;;;;;;;;4998550;28;20440;-77
2023/09/04 01:45:19;;;;;;;1.50;1.40;;;;;;;;;;5014893;28;20029;-78
2023/09/04 01:47:46;;;;;;;1.55;1.45;;;;;;;;;;5015616;28;20546;-78
2023/09/04 01:50:11;;;;;;;1.92;1.40;;;;;;;;;;5014500;28;20511;-77
2023/09/04 01:52:37;;;;;;;1.70;1.35;;;;;;;;;;4997912;28;20030;-77
2023/09/04 01:55:02;;;;;;;1.63;1.30;;;;;;;;;;5014257;28;20041;-77
2023/09/04 01:57:28;;;;;;;1.50;1.40;;;;;;;;;;5015814;28;20034;-78
2023/09/04 01:59:53;;;;;;;3.08;1.45;;;;;;;;;;5014277;28;20030;-78
2023/09/04 02:02:18;;;;;;;1.83;1.50;;;;;;;;;;5014230;28;20026;-78
2023/09/04 02:04:44;;;;;;;1.40;1.30;;;;;;;;;;5014050;28;20034;-78
2023/09/04 02:07:10;;;;;;;1.30;1.20;;;;;;;;;;5015875;28;20040;-78
2023/09/04 02:09:35;;;;;;;2.50;1.30;;;;;;;;;;5015669;28;20124;-78
2023/09/04 02:12:01;;;;;;;1.30;1.17;;;;;;;;;;5015529;28;20561;-78
2023/09/04 02:14:28;;;;;;;1.60;1.50;;;;;;;;;;5015031;28;20029;-78
2023/09/04 02:16:53;;;;;;;1.70;1.60;;;;;;;;;;5014134;28;20026;-78
2023/09/04 02:19:18;;;;;;;4.80;1.50;;;;;;;;;;5013988;28;20030;-78
2023/09/04 02:21:44;;;;;;;1.50;1.35;;;;;;;;;;4997317;28;20053;-77
2023/09/04 02:24:09;;;;;;;1.50;1.40;;;;;;;;;;5015024;28;20049;-78
2023/09/04 02:26:35;;;;;;;1.40;1.30;;;;;;;;;;5013631;28;20034;-78
2023/09/04 02:29:00;;;;;;;1.48;1.38;;;;;;;;;;5015260;28;20030;-78
2023/09/04 02:31:25;;;;;;;1.90;1.50;;;;;;;;;;5013635;28;20041;-78
2023/09/04 02:33:52;;;;;;;1.65;1.27;;;;;;;;;;4997553;28;20168;-78
2023/09/04 02:36:17;;;;;;;1.40;1.30;;;;;;;;;;5014993;28;20060;-78
2023/09/04 02:38:42;;;;;;;3.47;1.33;;;;;;;;;;5014947;28;20481;-78
2023/09/04 02:41:08;;;;;;;1.63;1.38;;;;;;;;;;5014920;28;20500;-78
2023/09/04 02:43:33;;;;;;;1.42;1.33;;;;;;;;;;5015198;28;20021;-78
2023/09/04 02:45:59;;;;;;;1.65;1.55;;;;;;;;;;5014183;28;20034;-78
2023/09/04 02:48:24;;;;;;;1.33;1.23;;;;;;;;;;5014845;28;20034;-78
2023/09/04 02:50:49;;;;;;;1.67;1.42;;;;;;;;;;5014499;28;20120;-78
2023/09/04 02:53:15;;;;;;;2.00;1.40;;;;;;;;;;5014375;28;20030;-78
2023/09/04 02:55:47;;;;;;;1.60;1.50;;;;;;;;;;5014434;28;20037;-78
2023/09/04 02:58:12;;;;;;;1.60;1.50;;;;;;;;;;5013441;28;20449;-78
2023/09/04 03:00:40;;;;;;;1.40;1.30;;;;;;;;;;5013455;28;20060;-77
2023/09/04 03:03:06;;;;;;;1.85;1.40;;;;;;;;;;5014362;28;20022;-78
2023/09/04 03:05:31;;;;;;;1.80;1.50;;;;;;;;;;5014783;28;20041;-78
2023/09/04 03:07:57;;;;;;;1.48;1.33;;;;;;;;;;5014266;28;20037;-78
2023/09/04 03:10:22;;;;;;;1.50;1.40;;;;;;;;;;5014509;28;20033;-77
2023/09/04 03:12:47;;;;;;;1.50;1.40;;;;;;;;;;5014348;28;20034;-78
2023/09/04 03:15:13;;;;;;;1.45;1.35;;;;;;;;;;5012922;28;20027;-78
2023/09/04 03:17:38;;;;;;;1.45;1.35;;;;;;;;;;5014292;28;20037;-78
2023/09/04 03:20:04;;;;;;;1.80;1.60;;;;;;;;;;5014063;28;20041;-78
2023/09/04 03:22:29;;;;;;;1.45;1.35;;;;;;;;;;5012682;28;20046;-78
2023/09/04 03:24:55;;;;;;;1.90;1.30;;;;;;;;;;5014128;28;20060;-78
2023/09/04 03:27:20;;;;;;;1.83;1.40;;;;;;;;;;4996306;28;20038;-78
2023/09/04 03:29:46;;;;;;;2.15;1.60;;;;;;;;;;5012661;28;20065;-78
2023/09/04 03:32:11;;;;;;;1.55;1.45;;;;;;;;;;5014317;28;20030;-78
2023/09/04 03:34:37;;;;;;;1.90;1.42;;;;;;;;;;5012501;28;20026;-78
2023/09/04 03:37:03;;;;;;;2.95;1.65;;;;;;;;;;5014081;28;20064;-78
2023/09/04 03:39:28;;;;;;;2.13;1.50;;;;;;;;;;5012653;28;20476;-78
2023/09/04 03:41:53;;;;;;;1.42;1.33;;;;;;;;;;5013811;28;20445;-78
2023/09/04 03:44:19;;;;;;;1.60;1.50;;;;;;;;;;4996146;28;20037;-78
2023/09/04 03:46:44;;;;;;;1.60;1.50;;;;;;;;;;5012414;28;20065;-78
2023/09/04 03:49:10;;;;;;;1.48;1.38;;;;;;;;;;5012029;28;20033;-78
2023/09/04 03:51:35;;;;;;;1.60;1.50;;;;;;;;;;5013571;28;20034;-78
2023/09/04 03:54:03;;;;;;;1.77;1.65;;;;;;;;;;5012326;28;20045;-77
2023/09/04 03:56:29;;;;;;;2.97;1.80;;;;;;;;;;5013507;28;20492;-78
2023/09/04 03:58:56;;;;;;;1.80;1.70;;;;;;;;;;5013514;28;20103;-78
2023/09/04 04:01:22;;;;;;;2.08;1.88;;;;;;;;;;5013538;28;20037;-78
2023/09/04 04:03:48;;;;;;;1.90;1.80;;;;;;;;;;5012344;28;20457;-78
2023/09/04 04:06:14;;;;;;;2.45;1.70;;;;;;;;;;4995968;28;20030;-78
2023/09/04 04:08:39;;;;;;;2.67;1.60;;;;;;;;;;5012392;28;20037;-81
2023/09/04 04:11:05;;;;;;;2.55;1.95;;;;;;;;;;5012188;28;20072;-78
2023/09/04 04:13:31;;;;;;;2.33;1.70;;;;;;;;;;5013428;28;20034;-79
2023/09/04 04:15:57;;;;;;;1.90;1.60;;;;;;;;;;5012233;28;20088;-78
2023/09/04 04:18:22;;;;;;;3.20;2.22;;;;;;;;;;5013437;28;20040;-78
2023/09/04 04:20:48;;;;;;;4.35;2.08;;;;;;;;;;5012280;28;20029;-78
2023/09/04 04:23:13;;;;;;;2.25;2.03;;;;;;;;;;5012318;28;20497;-78
2023/09/04 04:25:40;;;;;;;3.00;1.88;;;;;;;;;;5013811;28;20041;-78
2023/09/04 04:28:05;;;;;;;3.80;2.70;;;;;;;;;;4996348;28;20048;-77
2023/09/04 04:30:31;;;;;;;3.88;2.53;;;;;;;;;;4995783;28;20473;-78
2023/09/04 04:32:56;;;;;;;6.38;2.33;;;;;;;;;;5012998;28;20026;-79
2023/09/04 04:35:22;;;;;;;3.88;2.40;;;;;;;;;;5012377;28;20034;-79
2023/09/04 04:37:47;;;;;;;3.10;2.45;;;;;;;;;;5012629;28;20108;-78
2023/09/04 04:40:19;;;;;;;2.42;2.22;;;;;;;;;;5013892;28;20038;-79
2023/09/04 04:42:45;;;;;;;2.97;2.40;;;;;;;;;;5011474;28;20026;-78
2023/09/04 04:45:10;;;;;;;4.47;2.42;;;;;;;;;;4995064;28;20381;-78
2023/09/04 04:47:35;;;;;;;3.08;2.20;;;;;;;;;;5011321;28;20100;-78
2023/09/04 04:50:01;;;;;;;4.10;2.38;;;;;;;;;;5011203;28;20030;-78
2023/09/04 04:52:27;;;;;;;3.65;2.13;;;;;;;;;;5011110;28;20378;-79
2023/09/04 04:54:52;;;;;;;6.80;2.50;;;;;;;;;;5011005;28;20037;-78
2023/09/04 04:57:17;;;;;;;4.03;2.30;;;;;;;;;;5012534;28;20472;-79
2023/09/04 04:59:43;;;;;;;3.90;2.92;;;;;;;;;;5011092;28;20065;-79
2023/09/04 05:02:09;;;;;;;6.78;3.00;;;;;;;;;;5013750;28;20512;-78
2023/09/04 05:04:35;;;;;;;5.72;2.83;;;;;;;;;;4998122;28;20034;-78
2023/09/04 05:07:01;;;;;;;6.32;3.55;;;;;;;;;;5014688;28;20057;-78
2023/09/04 05:09:26;;;;;;;7.15;3.75;;;;;;;;;;5014492;28;20058;-78
2023/09/04 05:11:52;;;;;;;9.50;3.55;;;;;;;;;;4998263;28;20513;-78
2023/09/04 05:14:17;;;;;;;13.35;3.45;;;;;;;;;;5015742;28;20030;-78
2023/09/04 05:16:42;;;;;;;8.90;3.45;;;;;;;;;;5014563;28;20033;-78
2023/09/04 05:19:08;;;;;;;9.73;3.65;;;;;;;;;;5014858;28;20153;-79
2023/09/04 05:21:33;;;;;;;5.85;3.53;;;;;;;;;;5015321;28;20436;-78
2023/09/04 05:23:58;;;;;;;9.43;3.90;;;;;;;;;;5014892;28;20076;-78
2023/09/04 05:26:24;;;;;;;8.60;3.70;;;;;;;;;;5014758;28;20038;-78
2023/09/04 05:28:49;;;;;;;11.15;3.97;;;;;;;;;;5014658;28;20034;-78
2023/09/04 05:31:14;;;;;;;8.20;3.17;;;;;;;;;;5014673;28;20126;-78
2023/09/04 05:33:40;;;;;;;8.10;3.45;;;;;;;;;;5014327;28;20432;-78
2023/09/04 05:36:08;;;;;;;5.47;2.90;;;;;;;;;;5014389;28;20045;-78
2023/09/04 05:38:33;;;;;;;8.98;3.00;;;;;;;;;;5015424;28;20032;-78
2023/09/04 05:40:59;;;;;;;6.57;3.40;;;;;;;;;;5014520;28;20030;-78
2023/09/04 05:43:24;;;;;;;4.60;3.00;;;;;;;;;;4998038;28;20034;-78
2023/09/04 05:45:50;;;;;;;6.13;3.13;;;;;;;;;;5015484;28;20033;-78
2023/09/04 05:48:15;;;;;;;6.75;2.67;;;;;;;;;;5014168;28;20764;-78
2023/09/04 05:50:40;;;;;;;6.05;2.97;;;;;;;;;;4997919;28;20042;-79
2023/09/04 05:53:06;;;;;;;4.95;2.83;;;;;;;;;;5015652;28;20033;-78
2023/09/04 05:55:35;;;;;;;6.18;3.10;;;;;;;;;;4999029;28;20160;-78
2023/09/04 05:58:00;;;;;;;4.10;2.45;;;;;;;;;;5016803;28;20026;-79
2023/09/04 06:00:27;;;;;;;7.00;3.00;;;;;;;;;;5018338;28;20025;-80
2023/09/04 06:02:54;;;;;;;7.05;3.20;;;;;;;;;;5017627;28;20545;-78
2023/09/04 06:05:21;;;;;;;6.43;2.92;;;;;;;;;;5016767;28;20029;-78
2023/09/04 06:07:46;;;;;;;4.25;2.60;;;;;;;;;;5015065;28;20092;-78
2023/09/04 06:10:12;;;;;;;6.47;2.95;;;;;;;;;;5016115;28;20034;-78
2023/09/04 06:12:37;;;;;;;5.53;2.70;;;;;;;;;;5015204;28;20435;-78
2023/09/04 06:15:02;;;;;;;6.78;2.80;;;;;;;;;;5024543;28;20030;-79
2023/09/04 06:17:28;;;;;;;4.70;2.50;;;;;;;;;;5024304;28;20038;-77
2023/09/04 06:19:53;;;;;;;7.18;2.75;;;;;;;;;;5024894;28;20054;-83
2023/09/04 06:22:19;;;;;;;9.50;4.90;;;;;;;;;;5018243;28;20413;-78
2023/09/04 06:24:44;;;;;;;7.25;3.97;;;;;;;;;;5014813;28;20033;-78
2023/09/04 06:27:10;;;;;;;6.00;3.90;;;;;;;;;;5014580;28;20045;-78
2023/09/04 06:29:35;;;;;;;6.65;3.58;;;;;;;;;;5014415;28;20021;-79
2023/09/04 06:32:00;;;;;;;9.55;3.65;;;;;;;;;;5014418;28;20100;-79
2023/09/04 06:34:26;;;;;;;6.85;3.30;;;;;;;;;;5014345;28;20034;-78
2023/09/04 06:36:51;;;;;;;3.60;3.00;;;;;;;;;;5012784;28;20405;-79
2023/09/04 06:39:17;;;;;;;6.68;3.65;;;;;;;;;;5015569;28;20504;-78
2023/09/04 06:41:42;;;;;;;6.07;3.10;;;;;;;;;;5014198;28;20030;-78
2023/09/04 06:44:07;;;;;;;7.35;3.17;;;;;;;;;;5014943;28;20025;-78
2023/09/04 06:46:33;;;;;;;5.88;3.17;;;;;;;;;;5013755;28;20028;-79
2023/09/04 06:48:58;;;;;;;4.70;2.88;;;;;;;;;;5013674;28;20052;-78
2023/09/04 06:51:24;;;;;;;4.45;3.03;;;;;;;;;;5013638;28;20053;-78
2023/09/04 06:53:49;;;;;;;3.67;2.63;;;;;;;;;;5014563;28;20029;-78
2023/09/04 06:56:15;;;;;;;5.22;3.08;;;;;;;;;;5013752;28;20041;-79
2023/09/04 06:58:40;;;;;;;3.90;2.80;;;;;;;;;;4997208;28;20437;-78
2023/09/04 07:01:05;;;;;;;3.53;2.78;;;;;;;;;;5014935;28;20026;-78
2023/09/04 07:03:31;;;;;;;3.35;2.65;;;;;;;;;;5014942;28;20480;-78
2023/09/04 07:05:57;;;;;;;5.25;2.58;;;;;;;;;;5014664;28;20109;-78
2023/09/04 07:08:22;;;;;;;4.70;2.75;;;;;;;;;;5013356;28;20026;-78
2023/09/04 07:10:48;;;;;;;4.15;2.67;;;;;;;;;;5013967;28;20140;-78
2023/09/04 07:13:14;;;;;;;3.38;2.50;;;;;;;;;;5013399;28;20034;-78
2023/09/04 07:15:40;;;;;;;4.10;2.55;;;;;;;;;;5013305;28;20032;-78
2023/09/04 07:18:06;;;;;;;3.72;2.50;;;;;;;;;;5014336;28;20033;-78
2023/09/04 07:20:32;;;;;;;3.72;2.63;;;;;;;;;;5013307;28;20030;-78
2023/09/04 07:22:57;;;;;;;3.00;2.38;;;;;;;;;;5012577;28;20133;-78
2023/09/04 07:25:22;;;;;;;2.53;2.20;;;;;;;;;;5012675;28;20087;-78
2023/09/04 07:27:48;;;;;;;5.18;2.80;;;;;;;;;;4996559;28;20099;-78
2023/09/04 07:30:13;;;;;;;3.60;2.50;;;;;;;;;;5013231;28;20029;-78
2023/09/04 07:32:39;;;;;;;2.85;2.00;;;;;;;;;;5012798;28;20081;-78
2023/09/04 07:35:05;;;;;;;2.40;2.15;;;;;;;;;;5013360;28;20091;-78
2023/09/04 07:37:30;;;;;;;2.92;2.22;;;;;;;;;;5012691;28;20042;-78
2023/09/04 07:39:56;;;;;;;2.30;2.00;;;;;;;;;;5013939;28;20040;-78
2023/09/04 07:42:22;;;;;;;3.80;1.80;;;;;;;;;;4996377;28;20026;-79
2023/09/04 07:44:48;;;;;;;2.90;1.92;;;;;;;;;;5012350;28;20029;-78
2023/09/04 07:47:13;;;;;;;2.42;1.80;;;;;;;;;;5012502;28;20022;-78
2023/09/04 07:49:39;;;;;;;3.10;1.75;;;;;;;;;;5013822;28;20543;-78
2023/09/04 07:52:04;;;;;;;2.00;1.80;;;;;;;;;;5013435;28;20108;-78
2023/09/04 07:54:30;;;;;;;3.20;1.90;;;;;;;;;;5013574;28;20030;-78
2023/09/04 07:56:56;;;;;;;2.13;1.73;;;;;;;;;;4995965;28;20042;-78
2023/09/04 07:59:21;;;;;;;4.13;1.73;;;;;;;;;;5012529;28;20397;-78
2023/09/04 08:01:47;;;;;;;2.72;1.83;;;;;;;;;;5013757;28;20022;-78
2023/09/04 08:04:13;;;;;;;2.35;1.60;;;;;;;;;;5012042;28;20034;-79
2023/09/04 08:06:39;;;;;;;2.05;1.70;;;;;;;;;;5013666;28;20034;-76
2023/09/04 08:09:04;;;;;;;1.77;1.67;;;;;;;;;;5012246;28;20033;-76
2023/09/04 08:11:30;;;;;;;2.90;1.55;;;;;;;;;;5012554;28;20113;-76
2023/09/04 08:13:55;;;;;;;2.13;1.77;;;;;;;;;;5013442;28;20397;-79
2023/09/04 08:16:21;;;;;;;2.30;1.88;;;;;;;;;;5012305;28;20026;-76
2023/09/04 08:18:46;;;;;;;2.50;1.95;;;;;;;;;;5012682;28;20034;-76
2023/09/04 08:21:13;;;;;;;2.25;1.70;;;;;;;;;;5012200;28;20112;-76
2023/09/04 08:23:38;;;;;;;1.90;1.70;;;;;;;;;;5012157;28;20038;-76
2023/09/04 08:26:04;;;;;;;2.33;1.85;;;;;;;;;;4995919;28;20580;-76
2023/09/04 08:28:29;;;;;;;2.40;1.90;;;;;;;;;;4995780;28;20492;-76
2023/09/04 08:30:55;;;;;;;1.70;1.60;;;;;;;;;;4996218;28;20065;-76
2023/09/04 08:33:20;;;;;;;2.10;1.70;;;;;;;;;;5012470;28;20030;-76
2023/09/04 08:35:46;;;;;;;2.08;1.70;;;;;;;;;;4997885;28;20033;-76
2023/09/04 08:38:11;;;;;;;2.33;1.85;;;;;;;;;;5016216;28;20548;-76
2023/09/04 08:40:39;;;;;;;1.92;1.70;;;;;;;;;;5016709;28;20037;-78
2023/09/04 08:43:10;;;;;;;3.20;1.85;;;;;;;;;;4999493;28;20061;-76
2023/09/04 08:45:36;;;;;;;2.00;1.75;;;;;;;;;;5016119;28;20151;-76
2023/09/04 08:48:03;;;;;;;2.92;1.67;;;;;;;;;;5015792;28;20127;-76
2023/09/04 08:50:29;;;;;;;2.05;1.77;;;;;;;;;;5015808;28;20133;-76
2023/09/04 08:52:54;;;;;;;2.03;1.80;;;;;;;;;;5015620;28;20069;-76
2023/09/04 08:55:20;;;;;;;2.63;1.80;;;;;;;;;;5015914;28;20080;-76
2023/09/04 08:57:46;;;;;;;2.00;1.80;;;;;;;;;;5016867;28;20164;-76
2023/09/04 09:00:12;;;;;;;3.28;2.10;;;;;;;;;;5015899;28;20034;-76
2023/09/04 09:02:38;;;;;;;3.92;1.98;;;;;;;;;;5015465;28;20038;-76
2023/09/04 09:05:04;;;;;;;1.92;1.77;;;;;;;;;;4999399;28;20025;-76
2023/09/04 09:07:30;;;;;;;2.08;1.88;;;;;;;;;;5015667;28;20041;-76
2023/09/04 09:10:01;;;;;;;1.77;1.60;;;;;;;;;;5016242;28;20030;-76
2023/09/04 09:12:26;;;;;;;2.63;1.70;;;;;;;;;;5015683;28;20030;-78
2023/09/04 09:14:53;;;;;;;2.67;1.80;;;;;;;;;;5016618;28;20076;-78
2023/09/04 09:17:18;;;;;;;2.28;1.88;;;;;;;;;;4998844;28;20026;-77
2023/09/04 09:19:44;;;;;;;2.63;1.85;;;;;;;;;;5015240;28;20389;-77
2023/09/04 09:22:17;;;;;;;7.57;1.90;;;;;;;;;;5015314;28;20064;-77
2023/09/04 09:24:53;;;;;;;2.38;2.17;;;;;;;;;;5015437;28;20032;-77
2023/09/04 09:27:20;;;;;;;2.22;2.00;;;;;;;;;;5016387;28;20022;-77
2023/09/04 09:29:47;;;;;;;3.47;1.80;;;;;;;;;;4998652;28;20038;-77
2023/09/04 09:32:12;;;;;;;2.40;2.20;;;;;;;;;;5014954;28;20025;-76
2023/09/04 09:34:39;;;;;;;1.95;1.75;;;;;;;;;;5014943;28;20037;-76
2023/09/04 09:37:06;;;;;;;2.05;1.85;;;;;;;;;;4998612;28;20172;-77
2023/09/04 09:39:33;;;;;;;1.95;1.75;;;;;;;;;;5014933;28;20088;-79
2023/09/04 09:42:00;;;;;;;2.20;1.80;;;;;;;;;;5016001;28;20041;-77
2023/09/04 09:44:31;;;;;;;1.92;1.70;;;;;;;;;;5015014;28;20026;-77
2023/09/04 09:46:56;;;;;;;2.08;1.80;;;;;;;;;;5015526;28;20108;-77
2023/09/04 09:49:22;;;;;;;2.30;1.77;;;;;;;;;;5016282;28;20061;-76
2023/09/04 09:51:52;;;;;;;1.70;1.60;;;;;;;;;;5014730;28;20037;-77
2023/09/04 09:54:33;;;;;;;2.47;1.92;;;;;;;;;;5014828;28;20036;-77
2023/09/04 09:56:59;;;;;;;2.00;1.80;;;;;;;;;;5014672;28;20476;-77
2023/09/04 09:59:27;;;;;;;2.10;1.80;;;;;;;;;;5016079;28;20057;-77
2023/09/04 10:01:53;;;;;;;2.88;1.80;;;;;;;;;;4998556;28;20045;-77
2023/09/04 10:04:21;;;;;;;2.95;1.63;;;;;;;;;;5015749;28;20030;-77
2023/09/04 10:06:47;;;;;;;2.00;1.80;;;;;;;;;;5014655;28;20072;-79
2023/09/04 10:09:13;;;;;;;2.10;1.80;;;;;;;;;;5014555;28;20048;-77
2023/09/04 10:11:40;;;;;;;2.28;1.92;;;;;;;;;;5014336;28;20025;-79
2023/09/04 10:14:20;;;;;;;2.10;1.90;;;;;;;;;;5015501;28;20091;-79
2023/09/04 10:16:50;;;;;;;1.95;1.70;;;;;;;;;;5014203;28;20030;-77
2023/09/04 10:19:17;;;;;;;2.28;1.73;;;;;;;;;;5014215;28;20109;-79
2023/09/04 10:21:59;;;;;;;2.28;1.80;;;;;;;;;;5013973;28;20073;-79
2023/09/04 10:25:00;;;;;;;2.08;1.80;;;;;;;;;;5014111;28;20030;-77
2023/09/04 10:27:31;;;;;;;2.53;1.92;;;;;;;;;;5013659;28;20108;-79
2023/09/04 10:30:05;;;;;;;5.90;1.90;;;;;;;;;;5014059;28;20022;-79
2023/09/04 10:32:31;;;;;;;6.15;2.40;;;;;;;;;;4997675;28;20025;-79
2023/09/04 10:34:56;;;;;;;7.13;2.58;;;;;;;;;;5014151;28;20040;-77
2023/09/04 10:37:26;;;;;;;7.65;3.17;;;;;;;;;;5015057;28;20064;-77
2023/09/04 10:39:52;;;;;;;12.55;3.67;;;;;;;;;;5013968;28;20061;-79
2023/09/04 10:42:17;;;;;;;6.38;3.22;;;;;;;;;;4997812;28;20409;-77
2023/09/04 10:44:44;;;;;;;7.10;3.38;;;;;;;;;;4997329;28;20030;-80
2023/09/04 10:47:09;;;;;;;11.55;3.65;;;;;;;;;;5015005;28;20109;-79
2023/09/04 10:49:35;;;;;;;7.57;3.58;;;;;;;;;;4997209;28;20124;-79
2023/09/04 10:52:00;;;;;;;10.80;3.75;;;;;;;;;;5014858;28;20453;-79
2023/09/04 10:54:27;;;;;;;8.52;3.13;;;;;;;;;;5013434;28;20584;-79
2023/09/04 10:56:56;;;;;;;8.55;3.85;;;;;;;;;;5014911;28;20033;-79
2023/09/04 10:59:22;;;;;;;7.75;2.90;;;;;;;;;;5012641;28;20096;-78
2023/09/04 11:01:48;;;;;;;7.88;2.88;;;;;;;;;;5013263;28;20485;-78
2023/09/04 11:04:31;;;;;;;5.35;2.97;;;;;;;;;;5013613;28;20022;-78
2023/09/04 11:07:15;;;;;;;9.68;3.75;;;;;;;;;;5013567;28;20389;-79
2023/09/04 11:09:41;;;;;;;5.30;2.95;;;;;;;;;;5014586;28;20117;-79
2023/09/04 11:12:10;;;;;;;6.50;3.10;;;;;;;;;;5014626;28;20076;-79
2023/09/04 11:14:44;;;;;;;8.27;3.60;;;;;;;;;;5013475;28;20049;-79
2023/09/04 11:17:10;;;;;;;6.45;3.10;;;;;;;;;;5013124;28;20084;-79
2023/09/04 11:19:35;;;;;;;5.90;2.80;;;;;;;;;;5014957;28;20033;-81
2023/09/04 11:22:00;;;;;;;7.38;2.75;;;;;;;;;;5014306;28;20096;-79
2023/09/04 11:24:26;;;;;;;11.95;3.00;;;;;;;;;;5014881;28;20474;-79
2023/09/04 11:26:51;;;;;;;5.88;2.97;;;;;;;;;;5013155;28;20535;-78
2023/09/04 11:29:19;;;;;;;7.13;3.15;;;;;;;;;;5014288;28;20030;-80
2023/09/04 11:31:44;;;;;;;6.00;2.70;;;;;;;;;;5014894;28;20393;-80
2023/09/04 11:34:10;;;;;;;5.50;2.85;;;;;;;;;;5014632;28;20036;-78
2023/09/04 11:36:39;;;;;;;4.43;2.53;;;;;;;;;;5012912;28;20037;-79
2023/09/04 11:39:06;;;;;;;3.85;2.78;;;;;;;;;;5014205;28;20044;-79
2023/09/04 11:41:32;;;;;;;4.00;2.80;;;;;;;;;;5012953;28;20036;-79
2023/09/04 11:43:58;;;;;;;4.82;2.70;;;;;;;;;;5014383;28;20096;-79
2023/09/04 11:46:23;;;;;;;4.38;2.47;;;;;;;;;;5014189;28;20026;-79
2023/09/04 11:48:49;;;;;;;3.83;2.72;;;;;;;;;;5014627;28;20322;-79
2023/09/04 11:51:14;;;;;;;6.15;2.60;;;;;;;;;;4996514;28;20038;-79
2023/09/04 11:53:40;;;;;;;7.18;2.67;;;;;;;;;;5012909;28;20030;-80
2023/09/04 11:56:05;;;;;;;5.20;2.38;;;;;;;;;;5012839;28;20396;-79
2023/09/04 11:58:33;;;;;;;2.97;2.38;;;;;;;;;;5014522;28;20026;-79
2023/09/04 12:00:59;;;;;;;4.13;2.45;;;;;;;;;;4996952;28;20416;-79
2023/09/04 12:03:24;;;;;;;4.40;2.25;;;;;;;;;;5012825;28;20056;-79
2023/09/04 12:05:51;;;;;;;5.32;2.20;;;;;;;;;;5012834;28;20420;-79
2023/09/04 12:08:17;;;;;;;4.50;2.63;;;;;;;;;;5012580;28;20519;-79
2023/09/04 12:10:43;;;;;;;4.60;2.45;;;;;;;;;;5016875;28;20034;-79
2023/09/04 12:13:09;;;;;;;4.63;2.25;;;;;;;;;;5016770;28;20038;-77
2023/09/04 12:15:34;;;;;;;2.80;1.98;;;;;;;;;;5014785;28;20069;-78
2023/09/04 12:18:04;;;;;;;2.13;1.92;;;;;;;;;;5016282;28;20030;-78
2023/09/04 12:20:41;;;;;;;2.60;2.15;;;;;;;;;;5011130;28;20453;-78
2023/09/04 12:23:07;;;;;;;2.42;2.13;;;;;;;;;;4996088;28;20046;-78
2023/09/04 12:25:35;;;;;;;2.58;2.08;;;;;;;;;;5006151;28;20034;-78
2023/09/04 12:28:03;;;;;;;3.13;1.98;;;;;;;;;;4997948;28;20027;-78
2023/09/04 12:30:29;;;;;;;2.55;2.08;;;;;;;;;;4998525;28;20030;-78
2023/09/04 12:32:57;;;;;;;3.40;2.05;;;;;;;;;;4996399;28;20587;-78
2023/09/04 12:35:22;;;;;;;3.13;2.00;;;;;;;;;;5012798;28;20116;-78
2023/09/04 12:37:48;;;;;;;4.68;2.05;;;;;;;;;;4986085;28;20155;-78
2023/09/04 12:40:14;;;;;;;1.95;1.80;;;;;;;;;;5016059;28;20037;-78
2023/09/04 12:42:39;;;;;;;2.83;2.20;;;;;;;;;;5036592;28;20086;-78
2023/09/04 12:45:09;;;;;;;2.47;2.13;;;;;;;;;;5031673;28;20042;-78
2023/09/04 12:47:34;;;;;;;3.28;2.30;;;;;;;;;;5023669;28;20033;-78
2023/09/04 12:49:59;;;;;;;2.42;1.80;;;;;;;;;;5025956;28;20104;-78
2023/09/04 12:52:25;;;;;;;2.15;1.90;;;;;;;;;;5039945;28;20040;-79
2023/09/04 12:54:50;;;;;;;3.83;2.40;;;;;;;;;;5038842;28;20033;-79
2023/09/04 12:57:16;;;;;;;3.72;2.00;;;;;;;;;;5030220;28;20030;-79
2023/09/04 12:59:41;;;;;;;2.13;1.80;;;;;;;;;;5021300;28;20034;-79
2023/09/04 13:02:06;;;;;;;2.10;1.90;;;;;;;;;;5020790;28;20026;-79
2023/09/04 13:04:32;;;;;;;3.22;2.00;;;;;;;;;;5019643;28;20752;-80
2023/09/04 13:06:57;;;;;;;2.63;2.10;;;;;;;;;;5019506;28;20120;-79
2023/09/04 13:09:22;;;;;;;6.30;1.83;;;;;;;;;;5019431;28;20069;-78
2023/09/04 13:11:48;;;;;;;2.92;2.15;;;;;;;;;;5020763;28;20033;-79
2023/09/04 13:14:13;;;;;;;2.50;1.80;;;;;;;;;;4999110;28;20477;-79
2023/09/04 13:16:39;;;;;;;2.05;1.70;;;;;;;;;;5014822;28;20096;-79
2023/09/04 13:19:04;;;;;;;3.63;2.10;;;;;;;;;;5016212;28;20049;-79
2023/09/04 13:21:29;;;;;;;2.35;1.77;;;;;;;;;;4995410;28;20534;-78
2023/09/04 13:23:55;;;;;;;1.98;1.85;;;;;;;;;;4980480;28;20037;-79
2023/09/04 13:26:21;;;;;;;1.80;1.70;;;;;;;;;;4996078;28;20552;-79
2023/09/04 13:28:46;;;;;;;2.35;1.90;;;;;;;;;;5005690;28;20052;-79
2023/09/04 13:31:16;;;;;;;2.03;1.77;;;;;;;;;;4978819;28;20027;-79
2023/09/04 13:33:41;;;;;;;3.78;1.88;;;;;;;;;;4997672;28;20039;-79
2023/09/04 13:36:07;;;;;;;2.83;2.08;;;;;;;;;;4978729;28;20141;-79
2023/09/04 13:38:32;;;;;;;3.65;1.90;;;;;;;;;;5005551;28;20037;-79
2023/09/04 13:40:58;;;;;;;2.55;1.80;;;;;;;;;;4994862;28;20034;-78
2023/09/04 13:43:23;;;;;;;2.10;1.80;;;;;;;;;;4980148;28;20473;-79
2023/09/04 13:45:49;;;;;;;2.00;1.80;;;;;;;;;;4995983;28;20037;-78
2023/09/04 13:48:14;;;;;;;2.10;1.90;;;;;;;;;;5003993;28;20055;-79
2023/09/04 13:50:40;;;;;;;2.08;1.90;;;;;;;;;;4994700;28;20038;-79
2023/09/04 13:53:06;;;;;;;2.03;1.80;;;;;;;;;;4997175;28;20042;-78
2023/09/04 13:55:32;;;;;;;2.13;1.80;;;;;;;;;;4978612;28;20402;-78
2023/09/04 13:57:58;;;;;;;2.00;1.80;;;;;;;;;;5002727;28;20022;-78
2023/09/04 14:00:23;;;;;;;2.20;2.00;;;;;;;;;;4996887;28;20037;-79
2023/09/04 14:02:49;;;;;;;2.08;1.85;;;;;;;;;;4997311;28;20105;-79
2023/09/04 14:05:16;;;;;;;3.17;2.00;;;;;;;;;;4995792;28;20042;-79
2023/09/04 14:07:42;;;;;;;1.77;1.67;;;;;;;;;;4982930;28;20022;-79
2023/09/04 14:10:07;;;;;;;1.90;1.70;;;;;;;;;;5010803;28;20088;-79
2023/09/04 14:12:33;;;;;;;2.30;1.67;;;;;;;;;;5010233;28;20120;-79
2023/09/04 14:14:58;;;;;;;2.00;1.80;;;;;;;;;;4994169;28;20473;-79
2023/09/04 14:17:24;;;;;;;2.42;1.85;;;;;;;;;;4996343;28;20042;-78
2023/09/04 14:19:49;;;;;;;1.70;1.60;;;;;;;;;;5010423;28;20033;-79
2023/09/04 14:22:14;;;;;;;2.10;1.90;;;;;;;;;;4994015;28;20062;-79
2023/09/04 14:24:40;;;;;;;4.45;1.85;;;;;;;;;;4996785;28;20044;-79
2023/09/04 14:27:05;;;;;;;2.67;2.10;;;;;;;;;;4995253;28;20034;-79
2023/09/04 14:29:31;;;;;;;3.63;2.00;;;;;;;;;;4987429;28;20038;-78
2023/09/04 14:31:56;;;;;;;2.15;1.88;;;;;;;;;;4995306;28;20041;-78
2023/09/04 14:34:22;;;;;;;4.95;1.90;;;;;;;;;;4978876;28;20034;-78
2023/09/04 14:36:48;;;;;;;2.30;2.05;;;;;;;;;;4995837;28;20085;-79
2023/09/04 14:39:14;;;;;;;5.18;1.92;;;;;;;;;;5008592;28;20121;-78